createdAt,value
2022-11-23T00:01:17.934Z,99641.91
2022-11-23T00:04:22.397Z,99640.34
2022-11-23T00:07:25.048Z,99637.16
2022-11-23T00:10:27.693Z,99643.91
2022-11-23T00:13:30.350Z,99646.81
2022-11-23T00:16:33.172Z,99646.75
2022-11-23T00:19:37.139Z,99647.16
2022-11-23T00:22:39.771Z,99638.34
2022-11-23T00:25:45.647Z,99650.16
2022-11-23T00:28:48.485Z,99652.69
2022-11-23T00:31:51.085Z,99643.81
2022-11-23T00:34:55.088Z,99639.00
2022-11-23T00:37:57.741Z,99641.88
2022-11-23T00:41:01.845Z,99642.72
2022-11-23T00:44:04.906Z,99641.13
2022-11-23T00:47:07.529Z,99641.00
2022-11-23T00:50:11.717Z,99641.81
2022-11-23T00:53:14.312Z,99642.72
2022-11-23T00:56:18.237Z,99644.13
2022-11-23T00:59:20.847Z,99640.31
2022-11-23T01:02:23.462Z,99637.69
2022-11-23T01:05:27.406Z,99633.88
2022-11-23T01:08:30.261Z,99636.66
2022-11-23T01:11:33.967Z,99642.03
2022-11-23T01:14:36.588Z,99650.34
2022-11-23T01:17:39.253Z,99641.44
2022-11-23T01:20:43.355Z,99639.94
2022-11-23T01:23:45.959Z,99654.09
2022-11-23T01:26:52.399Z,99644.00
2022-11-23T01:29:55.052Z,99648.34
2022-11-23T01:32:57.664Z,99650.75
2022-11-23T01:36:01.649Z,99643.78
2022-11-23T01:39:06.175Z,99648.63
2022-11-23T01:42:08.800Z,99641.84
2022-11-23T01:45:35.470Z,99639.78
2022-11-23T01:48:41.458Z,99638.97
2022-11-23T01:51:48.997Z,99641.38
2022-11-23T01:54:54.727Z,99646.63
2022-11-23T01:57:57.393Z,99646.75
2022-11-23T02:01:00.821Z,99652.81
2022-11-23T02:04:04.017Z,99651.97
2022-11-23T02:07:08.669Z,99649.03
2022-11-23T02:10:11.373Z,99651.66
2022-11-23T02:13:15.074Z,99643.78
2022-11-23T02:16:18.582Z,99637.75
2022-11-23T02:19:36.424Z,99641.28
2022-11-23T02:22:50.425Z,99649.16
2022-11-23T02:26:01.233Z,99650.19
2022-11-23T02:29:08.885Z,99643.31
2022-11-23T02:32:11.523Z,99644.78
2022-11-23T02:35:14.174Z,99645.66
2022-11-23T02:38:18.085Z,99649.72
2022-11-23T02:41:22.049Z,99643.69
2022-11-23T02:44:34.669Z,99644.34
2022-11-23T02:47:37.300Z,99646.31
2022-11-23T02:50:39.931Z,99641.28
2022-11-23T02:53:42.570Z,99639.31
2022-11-23T02:56:46.609Z,99635.66
2022-11-23T02:59:49.453Z,99634.66
2022-11-23T03:02:52.095Z,99636.34
2022-11-23T03:05:54.693Z,99640.84
2022-11-23T03:08:57.294Z,99644.34
2022-11-23T03:12:01.254Z,99643.38
2022-11-23T03:15:04.339Z,99642.28
2022-11-23T03:18:07.075Z,99642.16
2022-11-23T03:21:09.844Z,99649.25
2022-11-23T03:24:12.458Z,99648.09
2022-11-23T03:27:16.555Z,99647.31
2022-11-23T03:30:19.457Z,99647.66
2022-11-23T03:33:22.184Z,99644.91
2022-11-23T03:36:24.805Z,99645.84
2022-11-23T03:39:27.407Z,99645.03
2022-11-23T03:42:31.382Z,99645.63
2022-11-23T03:45:34.269Z,99637.59
2022-11-23T03:48:36.886Z,99643.22
2022-11-23T03:51:39.514Z,99640.84
2022-11-23T03:54:42.119Z,99649.72
2022-11-23T03:57:48.779Z,99653.06
2022-11-23T04:00:51.586Z,99646.94
2022-11-23T04:03:54.252Z,99641.91
2022-11-23T04:06:56.880Z,99649.72
2022-11-23T04:09:59.487Z,99637.91
2022-11-23T04:13:03.667Z,99644.16
2022-11-23T04:16:07.570Z,99638.13
2022-11-23T04:19:10.426Z,99632.09
2022-11-23T04:22:13.103Z,99640.44
2022-11-23T04:25:15.845Z,99629.81
2022-11-23T04:28:19.827Z,99635.44
2022-11-23T04:31:22.434Z,99642.06
2022-11-23T04:34:25.053Z,99649.03
2022-11-23T04:37:27.704Z,99645.47
2022-11-23T04:40:31.588Z,99636.56
2022-11-23T04:43:35.560Z,99636.56
2022-11-23T04:46:38.319Z,99640.81
2022-11-23T04:49:41.089Z,99644.13
2022-11-23T04:52:43.744Z,99634.22
2022-11-23T04:55:47.556Z,99640.56
2022-11-23T04:58:51.524Z,99637.75
2022-11-23T05:01:54.131Z,99648.78
2022-11-23T05:04:56.937Z,99649.34
2022-11-23T05:07:59.866Z,99648.91
2022-11-23T05:11:02.513Z,99651.09
2022-11-23T05:14:06.604Z,99651.97
2022-11-23T05:17:09.300Z,99656.13
2022-11-23T05:20:12.718Z,99662.25
2022-11-23T05:23:15.394Z,99658.84
2022-11-23T05:26:17.999Z,99664.94
2022-11-23T05:29:22.223Z,99660.53
2022-11-23T05:32:24.849Z,99661.72
2022-11-23T05:35:27.446Z,99659.31
2022-11-23T05:38:30.269Z,99651.97
2022-11-23T05:41:32.855Z,99654.19
2022-11-23T05:44:36.889Z,99654.06
2022-11-23T05:47:39.562Z,99653.81
2022-11-23T05:50:42.198Z,99650.16
2022-11-23T05:53:44.841Z,99644.72
2022-11-23T05:56:47.464Z,99643.63
2022-11-23T05:59:51.459Z,99646.34
2022-11-23T06:02:54.091Z,99650.25
2022-11-23T06:05:56.782Z,99663.03
2022-11-23T06:08:59.461Z,99663.53
2022-11-23T06:12:02.061Z,99661.06
2022-11-23T06:15:07.374Z,99654.56
2022-11-23T06:18:10.568Z,99663.00
2022-11-23T06:21:13.198Z,99658.84
2022-11-23T06:24:15.992Z,99653.88
2022-11-23T06:27:18.687Z,99656.78
2022-11-23T06:30:22.785Z,99662.09
2022-11-23T06:33:25.415Z,99664.25
2022-11-23T06:36:28.239Z,99669.16
2022-11-23T06:39:31.415Z,99673.09
2022-11-23T06:42:39.503Z,99677.66
2022-11-23T06:45:44.012Z,99683.56
2022-11-23T06:48:47.053Z,99676.41
2022-11-23T06:51:49.660Z,99681.06
2022-11-23T06:54:52.321Z,99671.06
2022-11-23T06:57:55.001Z,99684.94
2022-11-23T07:01:03.479Z,99684.13
2022-11-23T07:04:06.504Z,99682.47
2022-11-23T07:07:09.708Z,99684.88
2022-11-23T07:10:13.321Z,99687.47
2022-11-23T07:13:16.148Z,99682.81
2022-11-23T07:16:20.108Z,99699.06
2022-11-23T07:19:22.730Z,99694.38
2022-11-23T07:22:25.402Z,99692.13
2022-11-23T07:25:28.216Z,99695.56
2022-11-23T07:28:30.844Z,99707.22
2022-11-23T07:31:34.841Z,99700.41
2022-11-23T07:34:37.454Z,99704.81
2022-11-23T07:37:40.109Z,99698.69
2022-11-23T07:40:42.746Z,99704.50
2022-11-23T07:43:45.387Z,99704.72
2022-11-23T07:46:49.350Z,99709.13
2022-11-23T07:49:52.004Z,99699.09
2022-11-23T07:52:55.925Z,99705.50
2022-11-23T07:55:58.965Z,99713.16
2022-11-23T07:59:01.643Z,99714.59
2022-11-23T08:02:05.675Z,99726.78
2022-11-23T08:05:14.022Z,99718.19
2022-11-23T08:08:17.073Z,99714.97
2022-11-23T08:11:20.625Z,99712.03
2022-11-23T08:14:23.706Z,99713.84
2022-11-23T08:17:27.670Z,99731.00
2022-11-23T08:20:31.292Z,99730.50
2022-11-23T08:23:34.208Z,99721.75
2022-11-23T08:26:36.850Z,99720.91
2022-11-23T08:29:39.460Z,99726.66
2022-11-23T08:32:43.435Z,99726.97
2022-11-23T08:35:46.105Z,99726.72
2022-11-23T08:38:51.282Z,99724.25
2022-11-23T08:41:54.065Z,99722.72
2022-11-23T08:44:59.972Z,99736.81
2022-11-23T08:48:05.118Z,99726.03
2022-11-23T08:51:07.926Z,99725.97
2022-11-23T08:54:10.561Z,99734.81
2022-11-23T08:57:13.164Z,99734.34
2022-11-23T09:00:16.783Z,99729.53
2022-11-23T09:03:20.939Z,99726.72
2022-11-23T09:06:28.838Z,99731.00
2022-11-23T09:09:31.489Z,99729.69
2022-11-23T09:12:34.352Z,99731.22
2022-11-23T09:15:37.157Z,99729.06
2022-11-23T09:18:41.161Z,99730.00
2022-11-23T09:21:43.933Z,99738.03
2022-11-23T09:24:46.604Z,99740.72
2022-11-23T09:27:49.291Z,99734.31
2022-11-23T09:30:51.931Z,99737.50
2022-11-23T09:33:55.974Z,99736.91
2022-11-23T09:36:59.045Z,99747.91
2022-11-23T09:40:01.645Z,99744.16
2022-11-23T09:43:16.651Z,99759.75
2022-11-23T09:46:26.954Z,99762.28
2022-11-23T09:49:34.433Z,99748.22
2022-11-23T09:52:41.477Z,99755.56
2022-11-23T09:55:45.810Z,99753.16
2022-11-23T09:58:54.392Z,99759.88
2022-11-23T10:01:57.505Z,99756.03
2022-11-23T10:05:02.331Z,99766.00
2022-11-23T10:08:11.594Z,99763.63
2022-11-23T10:11:36.202Z,99762.56
2022-11-23T10:14:52.273Z,99756.75
2022-11-23T10:18:09.040Z,99757.19
2022-11-23T10:21:21.655Z,99761.75
2022-11-23T10:24:32.168Z,99770.53
2022-11-23T10:27:35.059Z,99767.22
2022-11-23T10:30:38.192Z,99772.38
2022-11-23T10:33:50.557Z,99771.03
2022-11-23T10:36:57.001Z,99764.88
2022-11-23T10:39:59.722Z,99766.72
2022-11-23T10:43:15.768Z,99765.41
2022-11-23T10:46:30.960Z,99767.31
2022-11-23T10:49:35.155Z,99766.03
2022-11-23T10:52:39.164Z,99763.31
2022-11-23T10:55:49.966Z,99769.97
2022-11-23T10:58:52.984Z,99761.81
2022-11-23T11:02:16.090Z,99766.69
2022-11-23T11:09:03.013Z,99776.78
2022-11-23T11:12:06.664Z,99769.66
2022-11-23T11:15:17.595Z,99771.81
2022-11-23T11:18:20.930Z,99773.81
2022-11-23T11:21:25.369Z,99774.41
2022-11-23T11:24:33.414Z,99769.38
2022-11-23T11:27:36.306Z,99762.88
2022-11-23T11:30:46.969Z,99765.72
2022-11-23T11:33:56.806Z,99762.06
2022-11-23T11:37:08.753Z,99765.66
2022-11-23T11:40:20.266Z,99758.72
2022-11-23T11:43:34.742Z,99762.59
2022-11-23T11:46:46.303Z,99763.94
2022-11-23T11:49:51.256Z,99769.16
2022-11-23T11:53:00.896Z,99763.22
2022-11-23T11:56:12.948Z,99759.00
2022-11-23T11:59:20.891Z,99762.09
2022-11-23T12:02:27.343Z,99756.72
2022-11-23T12:05:37.894Z,99759.91
2022-11-23T12:08:48.501Z,99756.41
2022-11-23T12:11:53.323Z,99754.25
2022-11-23T12:14:55.984Z,99753.47
2022-11-23T12:18:28.260Z,99744.84
2022-11-23T12:21:56.175Z,99743.34
2022-11-23T12:25:12.583Z,99750.16
2022-11-23T12:28:41.466Z,99748.25
2022-11-23T12:31:49.534Z,99743.88
2022-11-23T12:35:17.982Z,99739.72
2022-11-23T12:38:30.781Z,99731.22
2022-11-23T12:41:44.699Z,99743.53
2022-11-23T12:45:16.601Z,99734.97
2022-11-23T12:48:38.009Z,99734.91
2022-11-23T12:51:46.939Z,99732.78
2022-11-23T12:54:57.475Z,99734.59
2022-11-23T12:58:04.831Z,99738.63
2022-11-23T13:01:14.098Z,99740.22
2022-11-23T13:04:54.114Z,99745.06
2022-11-23T13:08:21.700Z,99746.41
2022-11-23T13:11:37.629Z,99741.84
2022-11-23T13:14:50.945Z,99732.00
2022-11-23T13:18:05.046Z,99731.81
2022-11-23T13:21:21.384Z,99734.81
2022-11-23T13:24:29.051Z,99737.88
2022-11-23T13:27:43.843Z,99734.16
2022-11-23T13:31:14.981Z,99736.94
2022-11-23T13:34:52.400Z,99731.31
2022-11-23T13:38:24.463Z,99733.53
2022-11-23T13:42:00.519Z,99727.22
2022-11-23T13:45:24.812Z,99724.88
2022-11-23T13:48:57.603Z,99724.94
2022-11-23T13:52:06.603Z,99734.13
2022-11-23T13:55:22.969Z,99729.63
2022-11-23T13:58:40.365Z,99733.41
2022-11-23T14:02:29.939Z,99740.88
2022-11-23T14:05:56.300Z,99743.09
2022-11-23T14:09:06.193Z,99732.44
2022-11-23T14:12:23.549Z,99729.22
2022-11-23T14:15:30.426Z,99744.38
2022-11-23T14:18:46.158Z,99745.25
2022-11-23T14:22:02.319Z,99736.53
2022-11-23T14:25:21.346Z,99738.00
2022-11-23T14:28:41.119Z,99745.91
2022-11-23T14:31:53.157Z,99738.88
2022-11-23T14:35:10.737Z,99736.25
2022-11-23T14:38:42.871Z,99744.56
2022-11-23T14:41:53.502Z,99751.44
2022-11-23T14:44:59.130Z,99753.00
2022-11-23T14:48:22.923Z,99753.44
2022-11-23T14:51:27.653Z,99748.97
2022-11-23T14:54:31.692Z,99748.84
2022-11-23T14:57:42.375Z,99751.88
2022-11-23T15:00:45.762Z,99756.97
2022-11-23T15:03:57.684Z,99748.44
2022-11-23T15:07:04.339Z,99740.91
2022-11-23T15:10:21.481Z,99748.47
2022-11-23T15:13:27.557Z,99741.25
2022-11-23T15:16:30.511Z,99744.97
2022-11-23T15:19:33.228Z,99732.75
2022-11-23T15:22:37.842Z,99735.47
2022-11-23T15:25:51.846Z,99735.34
2022-11-23T15:28:55.897Z,99741.75
2022-11-23T15:35:23.954Z,99744.31
2022-11-23T15:38:26.834Z,99740.78
2022-11-23T15:41:31.621Z,99741.91
2022-11-23T15:44:39.512Z,99749.97
2022-11-23T15:47:42.268Z,99742.56
2022-11-23T15:50:48.944Z,99752.13
2022-11-23T15:53:53.061Z,99756.28
2022-11-23T15:56:59.061Z,99754.47
2022-11-23T16:00:05.408Z,99751.94
2022-11-23T16:03:22.560Z,99745.88
2022-11-23T16:06:39.057Z,99755.00
2022-11-23T16:09:51.715Z,99759.09
2022-11-23T16:12:56.867Z,99764.41
2022-11-23T16:16:10.578Z,99773.09
2022-11-23T16:19:25.890Z,99775.63
2022-11-23T16:22:31.887Z,99785.56
2022-11-23T16:25:36.270Z,99790.75
2022-11-23T16:28:40.640Z,99796.84
2022-11-23T16:31:54.327Z,99791.56
2022-11-23T16:35:00.276Z,99792.97
2022-11-23T16:38:02.959Z,99800.41
2022-11-23T16:41:05.599Z,99798.16
2022-11-23T16:44:08.295Z,99793.53
2022-11-23T16:47:21.867Z,99796.72
2022-11-23T16:50:25.468Z,99799.34
2022-11-23T16:53:30.147Z,99803.03
2022-11-23T16:56:32.951Z,99801.50
2022-11-23T16:59:36.605Z,99814.78
2022-11-23T17:02:40.868Z,99811.22
2022-11-23T17:05:43.599Z,99814.03
2022-11-23T17:08:46.480Z,99807.19
2022-11-23T17:11:50.222Z,99799.69
2022-11-23T17:14:52.915Z,99802.38
2022-11-23T17:17:56.885Z,99805.22
2022-11-23T17:20:59.506Z,99814.25
2022-11-23T17:24:02.892Z,99816.88
2022-11-23T17:27:05.749Z,99807.19
2022-11-23T17:30:14.101Z,99798.53
2022-11-23T17:33:18.269Z,99795.38
2022-11-23T17:36:20.946Z,99796.28
2022-11-23T17:39:25.859Z,99799.84
2022-11-23T17:42:28.696Z,99803.41
2022-11-23T17:45:31.328Z,99805.31
2022-11-23T17:48:35.351Z,99810.28
2022-11-23T17:51:37.932Z,99819.22
2022-11-23T17:54:40.600Z,99819.34
2022-11-23T17:57:43.612Z,99816.31
2022-11-23T18:00:46.344Z,99818.63
2022-11-23T18:03:50.880Z,99818.25
2022-11-23T18:06:53.560Z,99826.84
2022-11-23T18:09:56.222Z,99834.84
2022-11-23T18:12:58.947Z,99834.44
2022-11-23T18:16:01.641Z,99844.59
2022-11-23T18:19:05.795Z,99845.41
2022-11-23T18:22:08.401Z,99842.53
2022-11-23T18:25:11.211Z,99851.28
2022-11-23T18:28:18.530Z,99854.78
2022-11-23T18:31:21.572Z,99864.84
2022-11-23T18:34:25.658Z,99857.28
2022-11-23T18:37:28.283Z,99863.50
2022-11-23T18:40:30.896Z,99865.56
2022-11-23T18:43:33.935Z,99868.78
2022-11-23T18:46:36.801Z,99866.56
2022-11-23T18:49:40.794Z,99869.81
2022-11-23T18:52:43.440Z,99870.34
2022-11-23T18:55:46.059Z,99877.53
2022-11-23T18:58:48.788Z,99878.25
2022-11-23T19:01:51.457Z,99880.03
2022-11-23T19:04:55.592Z,99880.34
2022-11-23T19:08:04.012Z,99877.59
2022-11-23T19:11:07.957Z,99887.81
2022-11-23T19:14:11.629Z,99884.00
2022-11-23T19:17:14.254Z,99893.09
2022-11-23T19:20:20.440Z,99889.97
2022-11-23T19:23:26.912Z,99894.28
2022-11-23T19:26:32.536Z,99886.88
2022-11-23T19:29:35.376Z,99897.31
2022-11-23T19:32:38.799Z,99902.53
2022-11-23T19:35:42.755Z,99901.38
2022-11-23T19:38:45.703Z,99902.34
2022-11-23T19:41:48.462Z,99904.56
2022-11-23T19:44:51.097Z,99904.56
2022-11-23T19:47:53.700Z,99907.63
2022-11-23T19:51:00.023Z,99908.50
2022-11-23T19:54:02.652Z,99905.81
2022-11-23T19:57:05.325Z,99897.75
2022-11-23T20:00:09.400Z,99899.16
2022-11-23T20:03:12.328Z,99903.13
2022-11-23T20:06:18.013Z,99899.75
2022-11-23T20:09:21.118Z,99910.84
2022-11-23T20:12:23.893Z,99904.41
2022-11-23T20:15:26.487Z,99906.16
2022-11-23T20:18:29.900Z,99913.94
2022-11-23T20:21:35.267Z,99913.84
2022-11-23T20:24:38.312Z,99919.59
2022-11-23T20:27:41.220Z,99920.91
2022-11-23T20:30:44.431Z,99915.09
2022-11-23T20:33:47.345Z,99922.81
2022-11-23T20:36:51.383Z,99926.19
2022-11-23T20:39:54.046Z,99930.78
2022-11-23T20:42:57.211Z,99921.84
2022-11-23T20:46:00.022Z,99921.47
2022-11-23T20:49:02.913Z,99922.31
2022-11-23T20:52:07.052Z,99933.47
2022-11-23T20:55:10.237Z,99933.53
2022-11-23T20:58:12.839Z,99927.34
2022-11-23T21:01:17.503Z,99927.47
2022-11-23T21:04:20.118Z,99933.72
2022-11-23T21:07:24.740Z,99932.06
2022-11-23T21:10:45.242Z,99941.53
2022-11-23T21:14:05.989Z,99927.34
2022-11-23T21:17:09.438Z,99945.81
2022-11-23T21:20:12.601Z,99948.72
2022-11-23T21:23:16.957Z,99955.78
2022-11-23T21:26:20.115Z,99953.00
2022-11-23T21:29:23.849Z,99948.72
2022-11-23T21:32:26.907Z,99946.94
2022-11-23T21:35:30.642Z,99965.69
2022-11-23T21:38:36.449Z,99961.06
2022-11-23T21:41:40.348Z,99958.56
2022-11-23T21:44:42.980Z,99962.00
2022-11-23T21:47:46.499Z,99962.75
2022-11-23T21:50:49.942Z,99968.78
2022-11-23T21:53:54.117Z,99965.34
2022-11-23T21:56:56.725Z,99966.34
2022-11-23T21:59:59.346Z,99980.66
2022-11-23T22:03:02.128Z,99986.09
2022-11-23T22:06:05.526Z,99988.25
2022-11-23T22:09:11.265Z,99991.91
2022-11-23T22:12:14.087Z,99995.31
2022-11-23T22:15:17.307Z,99999.53
2022-11-23T22:18:20.268Z,100008.34
2022-11-23T22:21:24.979Z,100010.44
2022-11-23T22:24:29.201Z,100006.63
2022-11-23T22:27:31.959Z,100008.94
2022-11-23T22:30:34.759Z,100014.25
2022-11-23T22:33:37.642Z,100018.66
2022-11-23T22:36:40.438Z,100027.78
2022-11-23T22:39:44.587Z,100027.16
2022-11-23T22:42:47.485Z,100026.94
2022-11-23T22:45:50.286Z,100021.91
2022-11-23T22:48:53.979Z,100031.50
2022-11-23T22:51:56.781Z,100029.22
2022-11-23T22:55:00.960Z,100027.19
2022-11-23T22:58:03.779Z,100038.03
2022-11-23T23:01:08.143Z,100025.66
2022-11-23T23:04:11.387Z,100030.13
2022-11-23T23:07:14.210Z,100029.09
2022-11-23T23:10:18.781Z,100032.91
2022-11-23T23:13:22.677Z,100020.03
2022-11-23T23:16:26.857Z,100030.03
2022-11-23T23:19:29.982Z,100031.59
2022-11-23T23:22:32.801Z,100025.25
2022-11-23T23:25:36.977Z,100026.75
2022-11-23T23:28:40.493Z,100026.97
2022-11-23T23:31:43.359Z,100031.28
2022-11-23T23:34:46.311Z,100034.94
2022-11-23T23:37:50.368Z,100033.34
2022-11-23T23:40:56.520Z,100034.50
2022-11-23T23:43:59.321Z,100035.59
2022-11-23T23:47:02.198Z,100036.28
2022-11-23T23:50:05.459Z,100029.47
2022-11-23T23:53:08.230Z,100031.25
2022-11-23T23:56:16.461Z,100044.03
2022-11-23T23:59:19.334Z,100050.91
